createdAt,value
2023-09-08T00:02:30.263Z,84.12
2023-09-08T00:04:57.328Z,84.00
2023-09-08T00:07:24.129Z,83.30
2023-09-08T00:09:50.888Z,83.58
2023-09-08T00:12:17.938Z,83.48
2023-09-08T00:14:44.979Z,84.02
2023-09-08T00:17:11.827Z,83.73
2023-09-08T00:19:39.182Z,83.53
2023-09-08T00:22:07.563Z,84.27
2023-09-08T00:24:35.071Z,84.32
2023-09-08T00:27:01.924Z,83.87
2023-09-08T00:29:28.607Z,83.87
2023-09-08T00:31:55.241Z,83.83
2023-09-08T00:34:21.799Z,84.74
2023-09-08T00:36:57.831Z,84.27
2023-09-08T00:39:24.472Z,84.29
2023-09-08T00:41:51.054Z,83.91
2023-09-08T00:44:17.565Z,83.78
2023-09-08T00:46:44.222Z,83.80
2023-09-08T00:49:10.802Z,83.26
2023-09-08T00:51:39.226Z,84.59
2023-09-08T00:54:07.552Z,84.52
2023-09-08T00:56:35.106Z,83.95
2023-09-08T00:59:03.641Z,84.23
2023-09-08T01:01:30.510Z,84.32
2023-09-08T01:03:57.087Z,84.26
2023-09-08T01:06:24.838Z,84.23
2023-09-08T01:08:51.912Z,84.58
2023-09-08T01:11:21.029Z,83.70
2023-09-08T01:13:47.827Z,84.08
2023-09-08T01:16:16.121Z,84.21
2023-09-08T01:18:42.909Z,84.98
2023-09-08T01:21:28.199Z,85.13
2023-09-08T01:24:09.345Z,86.65
2023-09-08T01:26:41.858Z,85.78
2023-09-08T01:29:10.380Z,85.61
2023-09-08T01:31:40.340Z,86.79
2023-09-08T01:34:08.360Z,85.49
2023-09-08T01:36:36.286Z,85.74
2023-09-08T01:39:04.099Z,84.88
2023-09-08T01:41:36.725Z,85.49
2023-09-08T01:44:09.418Z,85.01
2023-09-08T01:46:36.209Z,86.12
2023-09-08T01:49:02.878Z,84.86
2023-09-08T01:51:29.669Z,84.05
2023-09-08T01:53:56.171Z,84.56
2023-09-08T01:56:24.169Z,84.76
2023-09-08T01:58:50.772Z,84.50
2023-09-08T02:01:17.649Z,84.88
2023-09-08T02:03:44.285Z,84.34
2023-09-08T02:06:10.824Z,83.92
2023-09-08T02:08:37.685Z,84.41
2023-09-08T02:11:04.352Z,84.49
2023-09-08T02:13:30.926Z,83.42
2023-09-08T02:15:57.605Z,84.02
2023-09-08T02:18:26.056Z,83.45
2023-09-08T02:20:52.732Z,85.00
2023-09-08T02:23:19.385Z,84.63
2023-09-08T02:25:46.090Z,85.13
2023-09-08T02:28:12.665Z,85.11
2023-09-08T02:46:42.128Z,92.27
2023-09-08T02:49:08.962Z,90.51
2023-09-08T02:51:35.522Z,88.88
2023-09-08T02:54:02.336Z,89.02
2023-09-08T02:56:28.944Z,87.70
2023-09-08T02:58:55.607Z,87.56
2023-09-08T03:01:22.360Z,87.26
2023-09-08T03:03:50.035Z,86.60
2023-09-08T03:06:20.335Z,87.14
2023-09-08T03:08:46.987Z,87.01
2023-09-08T03:11:14.381Z,86.37
2023-09-08T03:13:43.395Z,86.54
2023-09-08T03:16:12.027Z,86.13
2023-09-08T03:18:39.425Z,86.12
2023-09-08T03:21:12.924Z,86.04
2023-09-08T03:23:40.888Z,86.63
2023-09-08T03:26:08.514Z,85.70
2023-09-08T03:28:37.062Z,86.05
2023-09-08T03:31:07.556Z,85.66
2023-09-08T03:33:34.574Z,85.87
2023-09-08T03:36:01.497Z,85.42
2023-09-08T03:38:28.398Z,85.26
2023-09-08T03:40:55.138Z,84.95
2023-09-08T03:43:21.700Z,84.37
2023-09-08T03:45:48.733Z,85.27
2023-09-08T03:48:15.491Z,84.98
2023-09-08T03:50:43.242Z,84.63
2023-09-08T03:53:09.956Z,85.75
2023-09-08T03:55:36.454Z,85.34
2023-09-08T03:58:03.037Z,85.42
2023-09-08T04:00:31.229Z,85.67
2023-09-08T04:02:58.211Z,84.81
2023-09-08T04:05:25.116Z,85.70
2023-09-08T04:07:51.862Z,84.89
2023-09-08T04:10:18.440Z,85.21
2023-09-08T04:12:45.716Z,86.13
2023-09-08T04:15:12.456Z,85.97
2023-09-08T04:17:39.160Z,86.55
2023-09-08T04:20:07.656Z,87.49
2023-09-08T04:22:34.915Z,87.25
2023-09-08T04:25:02.115Z,86.70
2023-09-08T04:27:28.797Z,87.38
2023-09-08T04:29:55.482Z,85.89
2023-09-08T04:32:22.073Z,86.85
2023-09-08T04:34:50.436Z,87.29
2023-09-08T04:45:04.886Z,88.32
2023-09-08T04:47:31.692Z,87.61
2023-09-08T04:49:58.477Z,87.31
2023-09-08T04:52:27.105Z,88.12
2023-09-08T04:54:56.534Z,88.06
2023-09-08T04:57:23.972Z,87.51
2023-09-08T04:59:51.282Z,87.46
2023-09-08T05:02:19.695Z,87.00
2023-09-08T05:04:46.772Z,87.04
2023-09-08T05:07:14.659Z,86.92
2023-09-08T05:09:41.663Z,86.52
2023-09-08T05:12:08.377Z,87.40
2023-09-08T05:14:35.296Z,87.50
2023-09-08T05:17:01.868Z,87.41
2023-09-08T05:19:28.686Z,89.09
2023-09-08T05:21:56.192Z,88.44
2023-09-08T05:24:22.943Z,88.72
2023-09-08T05:26:49.479Z,89.83
2023-09-08T05:29:16.288Z,91.34
2023-09-08T05:31:45.827Z,89.48
2023-09-08T05:34:12.425Z,90.48
2023-09-08T05:36:42.187Z,90.59
2023-09-08T05:39:18.661Z,90.79
2023-09-08T05:42:01.178Z,91.60
2023-09-08T05:44:27.908Z,92.23
2023-09-08T05:47:01.073Z,91.90
2023-09-08T05:49:27.963Z,91.18
2023-09-08T05:51:54.730Z,91.54
2023-09-08T05:54:21.251Z,91.90
2023-09-08T05:56:47.818Z,91.80
2023-09-08T05:59:30.507Z,91.41
2023-09-08T06:01:57.172Z,91.43
2023-09-08T06:04:23.977Z,91.99
2023-09-08T06:06:50.906Z,91.01
2023-09-08T06:09:17.902Z,92.10
2023-09-08T06:11:44.475Z,91.31
2023-09-08T06:14:10.967Z,90.59
2023-09-08T06:16:38.640Z,91.20
2023-09-08T06:19:05.340Z,90.37
2023-09-08T06:21:32.079Z,90.45
2023-09-08T06:23:58.728Z,90.12
2023-09-08T06:26:25.569Z,91.76
2023-09-08T06:28:52.052Z,90.82
2023-09-08T06:31:19.020Z,91.38
2023-09-08T06:33:45.905Z,91.21
2023-09-08T06:36:12.522Z,90.64
2023-09-08T06:38:39.080Z,89.90
2023-09-08T06:41:12.574Z,89.44
2023-09-08T06:43:39.418Z,89.01
2023-09-08T06:46:06.032Z,88.93
2023-09-08T06:48:32.548Z,88.11
2023-09-08T06:50:59.991Z,87.29
2023-09-08T06:53:26.684Z,87.09
2023-09-08T06:55:53.319Z,87.63
2023-09-08T06:58:19.787Z,88.06
2023-09-08T07:00:46.387Z,87.36
2023-09-08T07:03:13.153Z,87.68
2023-09-08T07:05:42.902Z,87.73
2023-09-08T07:08:09.659Z,87.02
2023-09-08T07:10:36.404Z,87.59
2023-09-08T07:13:03.142Z,86.98
2023-09-08T07:15:29.595Z,87.23
2023-09-08T07:17:56.372Z,87.73
2023-09-08T07:20:23.217Z,87.19
2023-09-08T07:22:49.697Z,82.68
2023-09-08T07:25:16.337Z,82.61
2023-09-08T07:27:42.938Z,85.28
2023-09-08T07:30:09.921Z,82.81
2023-09-08T07:32:36.470Z,81.13
2023-09-08T07:35:03.142Z,82.93
2023-09-08T07:37:29.578Z,82.34
2023-09-08T07:39:56.293Z,82.78
2023-09-08T07:42:26.786Z,81.17
2023-09-08T07:44:53.321Z,78.91
2023-09-08T07:47:19.766Z,76.31
2023-09-08T07:49:48.781Z,74.89
2023-09-08T07:52:16.330Z,77.43
2023-09-08T07:54:45.892Z,81.47
2023-09-08T07:57:14.635Z,82.70
2023-09-08T07:59:41.172Z,80.75
2023-09-08T08:02:07.742Z,78.34
2023-09-08T08:04:34.309Z,75.61
2023-09-08T08:07:00.848Z,74.10
2023-09-08T08:09:27.317Z,72.60
2023-09-08T08:11:53.930Z,74.20
2023-09-08T08:14:20.453Z,75.62
2023-09-08T08:16:46.943Z,78.67
2023-09-08T08:29:08.549Z,75.54
2023-09-08T08:32:03.040Z,74.75
2023-09-08T08:34:32.863Z,70.86
2023-09-08T08:37:14.279Z,73.82
2023-09-08T08:39:48.261Z,67.24
2023-09-08T08:46:07.824Z,74.71
2023-09-08T08:48:42.860Z,72.68
2023-09-08T08:53:40.837Z,69.22
2023-09-08T08:56:49.678Z,73.14
2023-09-08T08:59:19.614Z,73.22
2023-09-08T09:01:51.181Z,75.38
2023-09-08T09:04:18.822Z,65.93
2023-09-08T09:06:48.517Z,66.70
2023-09-08T09:09:16.212Z,67.93
2023-09-08T09:11:43.185Z,67.52
2023-09-08T09:14:10.309Z,65.18
2023-09-08T09:16:41.818Z,67.01
2023-09-08T09:19:09.968Z,67.75
2023-09-08T09:25:01.005Z,68.33
2023-09-08T09:27:32.318Z,66.46
2023-09-08T09:30:02.181Z,65.11
2023-09-08T09:35:13.271Z,64.29
2023-09-08T09:41:19.542Z,66.56
2023-09-08T09:43:46.363Z,61.70
2023-09-08T09:46:13.057Z,58.83
2023-09-08T09:48:42.462Z,56.15
2023-09-08T09:51:49.243Z,59.68
2023-09-08T09:54:46.585Z,64.21
2023-09-08T09:57:13.987Z,62.96
2023-09-08T10:00:03.129Z,63.81
2023-09-08T10:02:32.010Z,57.70
2023-09-08T10:05:12.891Z,61.77
2023-09-08T10:07:40.982Z,60.68
2023-09-08T10:12:56.770Z,58.49
2023-09-08T10:15:28.455Z,57.88
2023-09-08T10:18:05.986Z,56.91
2023-09-08T10:20:34.884Z,56.08
2023-09-08T10:23:17.163Z,57.64
2023-09-08T10:26:52.660Z,62.91
2023-09-08T10:29:54.734Z,61.88
2023-09-08T10:32:38.013Z,58.82
2023-09-08T10:38:58.932Z,54.00
2023-09-08T10:41:25.539Z,57.27
2023-09-08T10:44:09.045Z,57.92
2023-09-08T10:46:36.461Z,53.61
2023-09-08T10:49:18.378Z,51.31
2023-09-08T10:51:46.084Z,56.15
2023-09-08T10:54:13.044Z,53.17
2023-09-08T10:56:50.885Z,53.42
2023-09-08T10:59:17.807Z,53.49
2023-09-08T11:01:44.384Z,48.94
2023-09-08T11:04:14.448Z,53.70
2023-09-08T11:06:58.847Z,54.18
2023-09-08T11:09:25.381Z,51.38
2023-09-08T11:11:51.990Z,52.20
2023-09-08T11:14:18.740Z,50.65
2023-09-08T11:16:45.363Z,50.50
2023-09-08T11:19:28.519Z,50.63
2023-09-08T11:21:55.080Z,47.99
2023-09-08T11:24:27.742Z,50.99
2023-09-08T11:27:04.306Z,50.83
2023-09-08T11:29:30.818Z,50.29
2023-09-08T11:31:57.212Z,45.35
2023-09-08T11:34:23.893Z,46.26
2023-09-08T11:36:50.460Z,49.11
2023-09-08T11:39:16.950Z,51.46
2023-09-08T11:41:43.419Z,49.82
2023-09-08T11:44:10.050Z,52.37
2023-09-08T11:46:36.717Z,46.58
2023-09-08T11:49:05.457Z,46.64
2023-09-08T11:51:31.939Z,47.82
2023-09-08T11:53:58.480Z,51.37
2023-09-08T11:56:25.294Z,54.26
2023-09-08T11:58:52.410Z,49.84
2023-09-08T12:01:19.934Z,48.63
2023-09-08T12:04:22.943Z,48.36
2023-09-08T12:06:51.005Z,43.68
2023-09-08T12:09:18.010Z,43.91
2023-09-08T12:11:44.854Z,48.14
2023-09-08T12:14:13.963Z,48.79
2023-09-08T12:16:41.599Z,54.60
2023-09-08T12:19:09.266Z,51.23
2023-09-08T12:21:55.515Z,49.42
2023-09-08T12:24:50.244Z,44.67
2023-09-08T12:27:18.086Z,45.37
2023-09-08T12:29:55.434Z,47.12
2023-09-08T12:32:23.181Z,43.96
2023-09-08T12:34:49.688Z,45.73
2023-09-08T12:37:20.154Z,44.48
2023-09-08T12:39:46.684Z,45.53
2023-09-08T12:42:13.645Z,48.72
2023-09-08T12:44:40.215Z,45.96
2023-09-08T12:47:07.302Z,47.96
2023-09-08T12:49:33.817Z,45.75
2023-09-08T12:52:00.338Z,47.99
2023-09-08T12:54:27.219Z,41.33
2023-09-08T12:56:54.064Z,45.97
2023-09-08T12:59:20.617Z,44.95
2023-09-08T13:01:47.086Z,44.99
2023-09-08T13:04:23.276Z,43.86
2023-09-08T13:06:50.746Z,46.89
2023-09-08T13:09:17.766Z,46.63
2023-09-08T13:11:44.982Z,45.78
2023-09-08T13:14:11.597Z,42.94
2023-09-08T13:16:38.266Z,44.19
2023-09-08T13:19:05.116Z,44.15
2023-09-08T13:21:31.990Z,46.64
2023-09-08T13:24:07.829Z,40.05
2023-09-08T13:29:39.938Z,41.30
2023-09-08T13:32:07.101Z,43.99
2023-09-08T13:38:33.395Z,47.84
2023-09-08T13:41:08.933Z,44.15
2023-09-08T13:43:56.019Z,44.57
2023-09-08T13:46:23.150Z,47.31
2023-09-08T13:48:50.704Z,46.45
2023-09-08T13:51:28.095Z,44.96
2023-09-08T13:58:09.420Z,45.06
2023-09-08T14:00:39.562Z,45.23
2023-09-08T14:09:54.590Z,44.33
2023-09-08T14:12:33.334Z,47.28
2023-09-08T14:15:08.141Z,46.92
2023-09-08T14:22:11.264Z,43.25
2023-09-08T14:24:48.513Z,45.24
2023-09-08T14:27:15.491Z,43.12
2023-09-08T14:29:45.395Z,47.50
2023-09-08T14:36:21.107Z,46.25
2023-09-08T14:39:28.397Z,48.62
2023-09-08T14:41:59.694Z,46.71
2023-09-08T14:44:40.828Z,47.96
2023-09-08T14:47:29.487Z,45.19
2023-09-08T14:53:43.111Z,46.58
2023-09-08T14:56:10.077Z,47.84
2023-09-08T14:59:05.803Z,44.40
2023-09-08T15:01:35.082Z,48.00
2023-09-08T15:04:02.044Z,47.37
2023-09-08T15:06:32.489Z,47.59
2023-09-08T15:09:00.400Z,47.04
2023-09-08T15:11:27.955Z,47.94
2023-09-08T15:13:58.662Z,51.65
2023-09-08T15:16:25.352Z,49.11
2023-09-08T15:19:18.107Z,46.90
2023-09-08T15:21:44.929Z,50.67
2023-09-08T15:24:11.796Z,50.28
2023-09-08T15:26:41.756Z,49.03
2023-09-08T15:29:09.814Z,49.95
2023-09-08T15:31:50.098Z,49.28
2023-09-08T15:34:27.080Z,51.93
2023-09-08T15:36:54.139Z,48.26
2023-09-08T15:39:23.626Z,50.70
2023-09-08T15:41:50.895Z,52.14
2023-09-08T15:44:29.694Z,50.94
2023-09-08T15:47:36.515Z,52.08
2023-09-08T15:50:20.195Z,49.60
2023-09-08T16:00:34.115Z,52.70
2023-09-08T16:05:59.695Z,53.85
2023-09-08T16:08:27.127Z,52.76
2023-09-08T16:10:54.574Z,55.46
2023-09-08T16:13:21.989Z,55.41
2023-09-08T16:15:48.881Z,55.14
2023-09-08T16:18:16.030Z,52.98
2023-09-08T16:20:51.482Z,55.16
2023-09-08T16:23:18.939Z,54.22
2023-09-08T16:28:34.284Z,55.95
2023-09-08T16:31:16.164Z,57.19
2023-09-08T16:33:46.180Z,56.18
2023-09-08T16:36:17.906Z,58.39
2023-09-08T16:39:12.868Z,60.14
2023-09-08T16:41:43.894Z,61.01
2023-09-08T16:44:14.273Z,62.68
2023-09-08T16:46:41.241Z,61.66
2023-09-08T17:09:40.277Z,64.72
2023-09-08T17:12:08.364Z,66.53
2023-09-08T17:14:36.275Z,65.43
2023-09-08T17:17:05.381Z,66.80
2023-09-08T17:19:32.264Z,66.44
2023-09-08T17:22:01.250Z,66.30
2023-09-08T17:24:28.656Z,67.12
2023-09-08T17:26:56.558Z,67.93
2023-09-08T17:29:23.089Z,67.02
2023-09-08T17:31:49.538Z,66.66
2023-09-08T17:34:21.182Z,68.47
2023-09-08T17:36:57.123Z,67.62
2023-09-08T17:39:24.710Z,66.46
2023-09-08T17:41:51.245Z,66.55
2023-09-08T17:44:21.714Z,67.26
2023-09-08T17:46:50.105Z,67.97
2023-09-08T17:49:16.726Z,69.27
2023-09-08T17:51:43.134Z,69.45
2023-09-08T17:54:09.719Z,69.92
2023-09-08T17:56:36.170Z,69.50
2023-09-08T17:59:02.625Z,71.14
2023-09-08T18:01:29.285Z,71.15
2023-09-08T18:03:56.068Z,70.69
2023-09-08T18:06:22.664Z,70.03
2023-09-08T18:08:52.707Z,70.33
2023-09-08T18:11:22.040Z,70.06
2023-09-08T18:13:49.657Z,69.71
2023-09-08T18:16:16.507Z,70.14
2023-09-08T18:18:44.813Z,69.09
2023-09-08T18:21:16.116Z,70.41
2023-09-08T18:23:42.746Z,69.62
2023-09-08T18:26:09.210Z,68.88
2023-09-08T18:28:36.078Z,68.95
2023-09-08T18:31:06.002Z,69.27
2023-09-08T18:33:32.574Z,68.46
2023-09-08T18:35:59.039Z,69.07
2023-09-08T18:38:26.742Z,70.56
2023-09-08T18:40:53.488Z,70.02
2023-09-08T18:43:20.101Z,71.11
2023-09-08T18:45:46.837Z,70.92
2023-09-08T18:48:13.613Z,72.03
2023-09-08T18:50:40.133Z,72.06
2023-09-08T18:53:06.841Z,71.70
2023-09-08T18:55:36.133Z,70.71
2023-09-08T18:58:03.784Z,71.27
2023-09-08T19:00:31.040Z,71.34
2023-09-08T19:02:59.864Z,71.13
2023-09-08T19:05:26.852Z,70.77
2023-09-08T19:07:53.580Z,71.29
2023-09-08T19:10:20.289Z,71.46
2023-09-08T19:12:47.016Z,71.50
2023-09-08T19:15:13.832Z,71.64
2023-09-08T19:17:40.755Z,71.60
2023-09-08T19:20:10.674Z,71.26
2023-09-08T19:22:37.740Z,71.97
2023-09-08T19:25:10.692Z,72.17
2023-09-08T19:27:37.610Z,70.86
2023-09-08T19:30:08.006Z,70.47
2023-09-08T19:32:34.661Z,69.66
2023-09-08T19:35:01.435Z,70.07
2023-09-08T19:37:27.997Z,71.06
2023-09-08T19:39:54.448Z,71.15
2023-09-08T19:42:20.972Z,71.57
2023-09-08T19:44:47.480Z,71.16
2023-09-08T19:47:14.178Z,70.73
2023-09-08T19:49:42.915Z,70.38
2023-09-08T19:52:13.711Z,71.54
2023-09-08T19:54:41.266Z,71.64
2023-09-08T19:57:07.735Z,71.97
2023-09-08T19:59:36.675Z,72.81
2023-09-08T20:02:03.211Z,72.89
2023-09-08T20:04:29.689Z,73.85
2023-09-08T20:06:58.368Z,74.29
2023-09-08T20:09:25.643Z,74.30
2023-09-08T20:11:52.716Z,73.73
2023-09-08T20:14:19.638Z,74.13
2023-09-08T20:16:46.138Z,74.28
2023-09-08T20:19:15.731Z,74.50
2023-09-08T20:21:42.256Z,75.01
2023-09-08T20:24:08.912Z,75.06
2023-09-08T20:26:35.387Z,75.19
2023-09-08T20:29:01.922Z,75.74
2023-09-08T20:31:28.436Z,75.89
2023-09-08T20:33:55.221Z,75.86
2023-09-08T20:36:21.678Z,75.48
2023-09-08T20:38:48.179Z,76.08
2023-09-08T20:41:14.757Z,75.80
2023-09-08T20:43:41.577Z,75.73
2023-09-08T20:46:08.472Z,76.86
2023-09-08T20:48:37.314Z,76.44
2023-09-08T20:51:05.999Z,76.49
2023-09-08T20:53:33.882Z,76.22
2023-09-08T20:56:00.618Z,76.21
2023-09-08T20:58:27.230Z,76.04
2023-09-08T21:00:57.382Z,76.58
2023-09-08T21:03:24.078Z,76.44
2023-09-08T21:05:51.146Z,77.32
2023-09-08T21:08:19.714Z,78.37
2023-09-08T21:10:46.866Z,77.80
2023-09-08T21:13:13.362Z,77.95
2023-09-08T21:15:39.944Z,78.46
2023-09-08T21:18:07.649Z,78.13
2023-09-08T21:20:37.252Z,78.04
2023-09-08T21:23:04.273Z,77.86
2023-09-08T21:25:32.142Z,78.43
2023-09-08T21:27:58.931Z,78.74
2023-09-08T21:30:25.439Z,78.41
2023-09-08T21:32:52.328Z,80.12
2023-09-08T21:35:19.175Z,80.25
2023-09-08T21:37:45.572Z,79.38
2023-09-08T21:40:12.439Z,80.46
2023-09-08T21:42:38.977Z,80.45
2023-09-08T21:45:07.655Z,81.74
2023-09-08T21:47:34.251Z,81.32
2023-09-08T21:50:00.737Z,81.25
2023-09-08T21:52:37.408Z,80.95
2023-09-08T21:55:05.514Z,81.17
2023-09-08T21:57:32.058Z,80.52
2023-09-08T21:59:58.584Z,79.62
2023-09-08T22:02:25.300Z,80.21
2023-09-08T22:04:52.191Z,80.84
2023-09-08T22:07:18.769Z,81.05
2023-09-08T22:09:45.245Z,80.88
2023-09-08T22:12:16.486Z,80.99
2023-09-08T22:14:42.960Z,81.26
2023-09-08T22:17:09.588Z,81.58
2023-09-08T22:19:36.000Z,81.46
2023-09-08T22:22:02.538Z,82.09
2023-09-08T22:24:29.481Z,81.56
2023-09-08T22:26:56.059Z,81.12
2023-09-08T22:29:23.495Z,82.03
2023-09-08T22:31:50.164Z,81.65
2023-09-08T22:34:16.763Z,81.61
2023-09-08T22:36:43.441Z,82.44
2023-09-08T22:39:12.649Z,81.64
2023-09-08T22:41:39.727Z,83.04
2023-09-08T22:44:06.694Z,82.66
2023-09-08T22:46:33.401Z,83.25
2023-09-08T22:48:59.869Z,82.90
2023-09-08T22:51:26.483Z,84.69
2023-09-08T22:53:53.367Z,84.35
2023-09-08T22:56:20.026Z,83.46
2023-09-08T22:58:46.562Z,83.77
2023-09-08T23:01:13.162Z,83.79
2023-09-08T23:03:39.724Z,83.29
2023-09-08T23:06:06.785Z,84.67
2023-09-08T23:08:33.231Z,84.08
2023-09-08T23:10:59.850Z,85.11
2023-09-08T23:13:26.287Z,84.98
2023-09-08T23:15:53.313Z,84.36
2023-09-08T23:18:20.220Z,84.09
2023-09-08T23:20:48.924Z,83.62
2023-09-08T23:23:15.760Z,84.05
2023-09-08T23:25:42.212Z,83.34
2023-09-08T23:28:08.709Z,83.80
2023-09-08T23:30:35.874Z,83.41
2023-09-08T23:33:02.512Z,83.96
2023-09-08T23:35:28.966Z,83.93
2023-09-08T23:37:55.652Z,84.60
2023-09-08T23:40:22.085Z,84.24
2023-09-08T23:42:48.538Z,84.46
2023-09-08T23:45:14.971Z,84.38
2023-09-08T23:47:41.518Z,83.96
2023-09-08T23:50:08.791Z,84.56
2023-09-08T23:52:35.285Z,84.25
2023-09-08T23:55:01.729Z,84.90
2023-09-08T23:57:28.278Z,84.35
2023-09-08T23:59:54.906Z,84.50
